sensor_id;sensor_type;location;lat;lon;timestamp;pressure;altitude;pressure_sealevel;temperature;humidity
13068;BME280;6600;51.362;6.686;2022-10-16T00:00:31;100685.47;;;13.77;100.00
13068;BME280;6600;51.362;6.686;2022-10-16T00:02:56;100683.81;;;13.76;100.00
13068;BME280;6600;51.362;6.686;2022-10-16T00:05:22;100679.25;;;13.76;100.00
13068;BME280;6600;51.362;6.686;2022-10-16T00:07:47;100681.25;;;13.81;100.00
13068;BME280;6600;51.362;6.686;2022-10-16T00:10:13;100682.22;;;13.75;100.00
13068;BME280;6600;51.362;6.686;2022-10-16T00:12:38;100680.09;;;13.77;100.00
13068;BME280;6600;51.362;6.686;2022-10-16T00:15:04;100681.59;;;13.73;100.00
13068;BME280;6600;51.362;6.686;2022-10-16T00:17:29;100689.22;;;13.76;100.00
13068;BME280;6600;51.362;6.686;2022-10-16T00:19:55;100690.28;;;13.75;100.00
13068;BME280;6600;51.362;6.686;2022-10-16T00:22:20;100691.19;;;13.80;100.00
13068;BME280;6600;51.362;6.686;2022-10-16T00:24:45;100690.38;;;13.80;100.00
13068;BME280;6600;51.362;6.686;2022-10-16T00:27:11;100695.75;;;13.80;100.00
13068;BME280;6600;51.362;6.686;2022-10-16T00:29:36;100690.38;;;13.80;100.00
13068;BME280;6600;51.362;6.686;2022-10-16T00:32:01;100691.19;;;13.80;100.00
13068;BME280;6600;51.362;6.686;2022-10-16T00:34:27;100687.22;;;13.83;100.00
13068;BME280;6600;51.362;6.686;2022-10-16T00:36:52;100687.81;;;13.85;100.00
13068;BME280;6600;51.362;6.686;2022-10-16T00:39:17;100686.16;;;13.84;100.00
13068;BME280;6600;51.362;6.686;2022-10-16T00:41:43;100685.13;;;13.85;100.00
13068;BME280;6600;51.362;6.686;2022-10-16T00:47:16;100686.44;;;13.71;100.00
13068;BME280;6600;51.362;6.686;2022-10-16T00:49:42;100688.06;;;13.72;100.00
13068;BME280;6600;51.362;6.686;2022-10-16T00:52:09;100684.78;;;13.70;100.00
13068;BME280;6600;51.362;6.686;2022-10-16T00:54:35;100679.38;;;13.70;100.00
13068;BME280;6600;51.362;6.686;2022-10-16T00:57:04;100677.44;;;13.65;100.00
13068;BME280;6600;51.362;6.686;2022-10-16T00:59:33;100678.56;;;13.69;100.00
13068;BME280;6600;51.362;6.686;2022-10-16T01:02:00;100679.78;;;13.61;100.00
13068;BME280;6600;51.362;6.686;2022-10-16T01:04:30;100676.97;;;13.56;100.00
13068;BME280;6600;51.362;6.686;2022-10-16T01:12:17;100683.53;;;13.37;100.00
13068;BME280;6600;51.362;6.686;2022-10-16T01:18:21;100694.63;;;13.29;100.00
13068;BME280;6600;51.362;6.686;2022-10-16T01:20:33;100702.59;;;13.24;100.00
13068;BME280;6600;51.362;6.686;2022-10-16T01:26:03;100694.50;;;13.24;100.00
13068;BME280;6600;51.362;6.686;2022-10-16T01:31:32;100696.28;;;13.30;100.00
13068;BME280;6600;51.362;6.686;2022-10-16T01:34:05;100693.13;;;13.33;100.00
13068;BME280;6600;51.362;6.686;2022-10-16T01:36:42;100689.34;;;13.34;100.00
13068;BME280;6600;51.362;6.686;2022-10-16T01:39:11;100688.66;;;13.39;100.00
13068;BME280;6600;51.362;6.686;2022-10-16T01:41:41;100688.78;;;13.44;100.00
13068;BME280;6600;51.362;6.686;2022-10-16T01:44:17;100691.38;;;13.50;100.00
13068;BME280;6600;51.362;6.686;2022-10-16T01:46:46;100694.63;;;13.52;100.00
13068;BME280;6600;51.362;6.686;2022-10-16T01:49:14;100680.69;;;13.55;100.00
13068;BME280;6600;51.362;6.686;2022-10-16T01:51:40;100679.53;;;13.63;100.00
13068;BME280;6600;51.362;6.686;2022-10-16T01:54:09;100685.16;;;13.61;100.00
13068;BME280;6600;51.362;6.686;2022-10-16T01:56:36;100682.91;;;13.58;100.00
13068;BME280;6600;51.362;6.686;2022-10-16T01:59:09;100681.66;;;13.49;100.00
13068;BME280;6600;51.362;6.686;2022-10-16T02:01:39;100697.94;;;13.54;100.00
13068;BME280;6600;51.362;6.686;2022-10-16T02:06:54;100693.69;;;13.35;100.00
13068;BME280;6600;51.362;6.686;2022-10-16T02:09:20;100692.88;;;13.35;100.00
13068;BME280;6600;51.362;6.686;2022-10-16T02:11:46;100698.38;;;13.28;100.00
13068;BME280;6600;51.362;6.686;2022-10-16T02:14:11;100703.75;;;13.28;100.00
13068;BME280;6600;51.362;6.686;2022-10-16T02:16:45;100702.59;;;13.24;100.00
13068;BME280;6600;51.362;6.686;2022-10-16T02:19:12;100707.53;;;13.27;100.00
13068;BME280;6600;51.362;6.686;2022-10-16T02:21:51;100712.31;;;13.25;100.00
13068;BME280;6600;51.362;6.686;2022-10-16T02:24:30;100707.97;;;13.24;100.00
13068;BME280;6600;51.362;6.686;2022-10-16T02:27:14;100715.22;;;13.35;100.00
13068;BME280;6600;51.362;6.686;2022-10-16T02:29:46;100721.91;;;13.33;100.00
13068;BME280;6600;51.362;6.686;2022-10-16T02:32:17;100708.81;;;13.36;100.00
13068;BME280;6600;51.362;6.686;2022-10-16T02:34:45;100715.22;;;13.35;100.00
13068;BME280;6600;51.362;6.686;2022-10-16T02:37:12;100718.53;;;13.37;100.00
13068;BME280;6600;51.362;6.686;2022-10-16T02:39:38;100710.19;;;13.39;100.00
13068;BME280;6600;51.362;6.686;2022-10-16T02:42:10;100713.72;;;13.39;100.00
13068;BME280;6600;51.362;6.686;2022-10-16T02:44:35;100707.28;;;13.40;100.00
13068;BME280;6600;51.362;6.686;2022-10-16T02:47:00;100713.94;;;13.38;100.00
13068;BME280;6600;51.362;6.686;2022-10-16T02:49:26;100712.06;;;13.38;100.00
13068;BME280;6600;51.362;6.686;2022-10-16T02:51:51;100699.69;;;13.37;100.00
13068;BME280;6600;51.362;6.686;2022-10-16T02:54:16;100709.38;;;13.38;100.00
13068;BME280;6600;51.362;6.686;2022-10-16T02:56:42;100711.16;;;13.44;100.00
13068;BME280;6600;51.362;6.686;2022-10-16T02:59:07;100703.78;;;13.40;100.00
13068;BME280;6600;51.362;6.686;2022-10-16T03:01:32;100711.25;;;13.49;100.00
13068;BME280;6600;51.362;6.686;2022-10-16T03:03:58;100711.72;;;13.46;100.00
13068;BME280;6600;51.362;6.686;2022-10-16T03:06:23;100718.63;;;13.54;100.00
13068;BME280;6600;51.362;6.686;2022-10-16T03:08:48;100715.81;;;13.49;100.00
13068;BME280;6600;51.362;6.686;2022-10-16T03:11:13;100710.06;;;13.45;100.00
13068;BME280;6600;51.362;6.686;2022-10-16T03:13:39;100711.25;;;13.49;100.00
13068;BME280;6600;51.362;6.686;2022-10-16T03:16:04;100716.41;;;13.51;100.00
13068;BME280;6600;51.362;6.686;2022-10-16T03:18:29;100708.00;;;13.47;100.00
13068;BME280;6600;51.362;6.686;2022-10-16T03:20:55;100709.97;;;13.52;100.00
13068;BME280;6600;51.362;6.686;2022-10-16T03:23:20;100712.06;;;13.50;100.00
13068;BME280;6600;51.362;6.686;2022-10-16T03:25:45;100708.56;;;13.49;100.00
13068;BME280;6600;51.362;6.686;2022-10-16T03:28:11;100707.63;;;13.55;100.00
13068;BME280;6600;51.362;6.686;2022-10-16T03:30:36;100714.06;;;13.54;100.00
13068;BME280;6600;51.362;6.686;2022-10-16T03:33:02;100709.72;;;13.53;100.00
13068;BME280;6600;51.362;6.686;2022-10-16T03:35:27;100717.34;;;13.56;100.00
13068;BME280;6600;51.362;6.686;2022-10-16T03:37:52;100715.59;;;13.50;100.00
13068;BME280;6600;51.362;6.686;2022-10-16T03:40:18;100716.63;;;13.49;100.00
13068;BME280;6600;51.362;6.686;2022-10-16T03:42:43;100728.69;;;13.47;100.00
13068;BME280;6600;51.362;6.686;2022-10-16T03:45:09;100726.69;;;13.42;100.00
13068;BME280;6600;51.362;6.686;2022-10-16T03:47:35;100722.63;;;13.40;100.00
13068;BME280;6600;51.362;6.686;2022-10-16T03:50:00;100722.34;;;13.41;100.00
13068;BME280;6600;51.362;6.686;2022-10-16T03:52:26;100733.84;;;13.37;100.00
13068;BME280;6600;51.362;6.686;2022-10-16T03:54:51;100730.91;;;13.38;100.00
13068;BME280;6600;51.362;6.686;2022-10-16T03:57:17;100729.88;;;13.39;100.00
13068;BME280;6600;51.362;6.686;2022-10-16T03:59:42;100718.53;;;13.37;100.00
13068;BME280;6600;51.362;6.686;2022-10-16T04:02:08;100724.13;;;13.36;100.00
13068;BME280;6600;51.362;6.686;2022-10-16T04:04:33;100728.13;;;13.33;100.00
13068;BME280;6600;51.362;6.686;2022-10-16T04:06:59;100741.22;;;13.30;100.00
13068;BME280;6600;51.362;6.686;2022-10-16T04:09:24;100737.69;;;13.29;100.00
13068;BME280;6600;51.362;6.686;2022-10-16T04:11:50;100741.44;;;13.28;100.00
13068;BME280;6600;51.362;6.686;2022-10-16T04:14:15;100745.19;;;13.27;100.00
13068;BME280;6600;51.362;6.686;2022-10-16T04:16:41;100744.00;;;13.23;100.00
13068;BME280;6600;51.362;6.686;2022-10-16T04:19:06;100741.53;;;13.22;100.00
13068;BME280;6600;51.362;6.686;2022-10-16T04:21:31;100745.06;;;13.22;100.00
13068;BME280;6600;51.362;6.686;2022-10-16T04:23:57;100754.88;;;13.28;100.00
13068;BME280;6600;51.362;6.686;2022-10-16T04:26:22;100758.19;;;13.30;100.00
13068;BME280;6600;51.362;6.686;2022-10-16T04:28:47;100754.31;;;13.26;100.00
13068;BME280;6600;51.362;6.686;2022-10-16T04:31:13;100763.88;;;13.22;100.00
13068;BME280;6600;51.362;6.686;2022-10-16T04:33:38;100768.69;;;13.20;100.00
13068;BME280;6600;51.362;6.686;2022-10-16T04:36:03;100766.94;;;13.26;100.00
13068;BME280;6600;51.362;6.686;2022-10-16T04:38:29;100772.19;;;13.21;100.00
13068;BME280;6600;51.362;6.686;2022-10-16T04:40:55;100774.75;;;13.15;100.00
13068;BME280;6600;51.362;6.686;2022-10-16T04:43:21;100761.53;;;13.14;100.00
13068;BME280;6600;51.362;6.686;2022-10-16T04:45:46;100755.31;;;13.13;100.00
13068;BME280;6600;51.362;6.686;2022-10-16T04:48:12;100764.47;;;13.12;100.00
13068;BME280;6600;51.362;6.686;2022-10-16T04:50:37;100777.19;;;13.17;100.00
13068;BME280;6600;51.362;6.686;2022-10-16T04:53:02;100770.78;;;13.18;100.00
13068;BME280;6600;51.362;6.686;2022-10-16T04:55:28;100784.00;;;13.20;100.00
13068;BME280;6600;51.362;6.686;2022-10-16T04:57:53;100783.50;;;13.11;100.00
13068;BME280;6600;51.362;6.686;2022-10-16T05:00:19;100793.69;;;13.09;100.00
13068;BME280;6600;51.362;6.686;2022-10-16T05:02:44;100801.78;;;13.09;100.00
13068;BME280;6600;51.362;6.686;2022-10-16T05:05:09;100794.72;;;13.08;100.00
13068;BME280;6600;51.362;6.686;2022-10-16T05:07:35;100802.19;;;13.06;100.00
13068;BME280;6600;51.362;6.686;2022-10-16T05:10:00;100802.19;;;13.06;100.00
13068;BME280;6600;51.362;6.686;2022-10-16T05:12:25;100806.50;;;13.07;100.00
13068;BME280;6600;51.362;6.686;2022-10-16T05:14:51;100800.56;;;13.05;100.00
13068;BME280;6600;51.362;6.686;2022-10-16T05:17:16;100809.38;;;13.12;100.00
13068;BME280;6600;51.362;6.686;2022-10-16T05:19:41;100808.63;;;13.05;100.00
13068;BME280;6600;51.362;6.686;2022-10-16T05:22:07;100812.97;;;13.06;100.00
13068;BME280;6600;51.362;6.686;2022-10-16T05:24:32;100807.97;;;13.09;100.00
13068;BME280;6600;51.362;6.686;2022-10-16T05:26:58;100806.97;;;13.04;100.00
13068;BME280;6600;51.362;6.686;2022-10-16T05:29:23;100810.03;;;13.07;100.00
13068;BME280;6600;51.362;6.686;2022-10-16T05:31:52;100814.56;;;13.07;100.00
13068;BME280;6600;51.362;6.686;2022-10-16T05:34:18;100816.22;;;13.08;100.00
13068;BME280;6600;51.362;6.686;2022-10-16T05:36:43;100813.41;;;13.03;100.00
13068;BME280;6600;51.362;6.686;2022-10-16T05:39:10;100819.97;;;13.07;100.00
13068;BME280;6600;51.362;6.686;2022-10-16T05:41:35;100824.28;;;13.08;100.00
13068;BME280;6600;51.362;6.686;2022-10-16T05:44:04;100826.41;;;13.06;100.00
13068;BME280;6600;51.362;6.686;2022-10-16T05:46:30;100822.06;;;13.05;100.00
13068;BME280;6600;51.362;6.686;2022-10-16T05:48:55;100827.91;;;13.02;100.00
13068;BME280;6600;51.362;6.686;2022-10-16T05:51:21;100838.66;;;13.02;100.00
13068;BME280;6600;51.362;6.686;2022-10-16T05:53:46;100842.84;;;12.98;100.00
13068;BME280;6600;51.362;6.686;2022-10-16T05:56:11;100858.53;;;13.01;100.00
13068;BME280;6600;51.362;6.686;2022-10-16T05:58:40;100848.81;;;13.00;100.00
13068;BME280;6600;51.362;6.686;2022-10-16T06:01:14;100850.94;;;12.98;100.00
13068;BME280;6600;51.362;6.686;2022-10-16T06:03:40;100863.34;;;12.99;100.00
13068;BME280;6600;51.362;6.686;2022-10-16T06:06:14;100869.75;;;12.98;100.00
13068;BME280;6600;51.362;6.686;2022-10-16T06:08:40;100865.19;;;12.98;100.00
13068;BME280;6600;51.362;6.686;2022-10-16T06:11:09;100865.41;;;12.97;100.00
13068;BME280;6600;51.362;6.686;2022-10-16T06:13:34;100866.03;;;12.99;100.00
13068;BME280;6600;51.362;6.686;2022-10-16T06:16:00;100877.81;;;12.98;100.00
13068;BME280;6600;51.362;6.686;2022-10-16T06:18:27;100877.81;;;12.98;100.00
13068;BME280;6600;51.362;6.686;2022-10-16T06:20:53;100882.28;;;13.04;100.00
13068;BME280;6600;51.362;6.686;2022-10-16T06:23:18;100876.25;;;13.08;100.00
13068;BME280;6600;51.362;6.686;2022-10-16T06:25:44;100875.41;;;13.08;100.00
13068;BME280;6600;51.362;6.686;2022-10-16T06:28:09;100887.41;;;13.12;100.00
13068;BME280;6600;51.362;6.686;2022-10-16T06:30:34;100887.50;;;13.17;100.00
13068;BME280;6600;51.362;6.686;2022-10-16T06:33:00;100890.22;;;13.17;100.00
13068;BME280;6600;51.362;6.686;2022-10-16T06:35:25;100891.41;;;13.21;100.00
13068;BME280;6600;51.362;6.686;2022-10-16T06:37:52;100893.06;;;13.22;100.00
13068;BME280;6600;51.362;6.686;2022-10-16T06:40:18;100897.50;;;13.28;100.00
13068;BME280;6600;51.362;6.686;2022-10-16T06:42:43;100898.69;;;13.32;100.00
13068;BME280;6600;51.362;6.686;2022-10-16T06:45:09;100907.34;;;13.34;100.00
13068;BME280;6600;51.362;6.686;2022-10-16T06:47:35;100909.00;;;13.35;100.00
13068;BME280;6600;51.362;6.686;2022-10-16T06:50:00;100924.09;;;13.36;100.00
13068;BME280;6600;51.362;6.686;2022-10-16T06:52:28;100924.69;;;13.38;100.00
13068;BME280;6600;51.362;6.686;2022-10-16T06:54:53;100939.34;;;13.42;100.00
13068;BME280;6600;51.362;6.686;2022-10-16T06:57:18;100930.06;;;13.38;100.00
13068;BME280;6600;51.362;6.686;2022-10-16T06:59:44;100944.81;;;13.36;100.00
13068;BME280;6600;51.362;6.686;2022-10-16T07:02:10;100955.78;;;13.34;100.00
13068;BME280;6600;51.362;6.686;2022-10-16T07:04:36;100957.00;;;13.38;100.00
13068;BME280;6600;51.362;6.686;2022-10-16T07:07:01;100960.75;;;13.37;100.00
13068;BME280;6600;51.362;6.686;2022-10-16T07:09:27;100964.84;;;13.40;100.00
13068;BME280;6600;51.362;6.686;2022-10-16T07:11:52;100970.91;;;13.35;100.00
13068;BME280;6600;51.362;6.686;2022-10-16T07:14:20;100973.97;;;13.39;100.00
13068;BME280;6600;51.362;6.686;2022-10-16T07:16:46;100971.06;;;13.40;100.00
13068;BME280;6600;51.362;6.686;2022-10-16T07:19:12;100975.06;;;13.49;100.00
13068;BME280;6600;51.362;6.686;2022-10-16T07:21:40;100980.91;;;13.46;100.00
13068;BME280;6600;51.362;6.686;2022-10-16T07:24:11;100980.44;;;13.49;100.00
13068;BME280;6600;51.362;6.686;2022-10-16T07:26:37;100980.59;;;13.54;100.00
13068;BME280;6600;51.362;6.686;2022-10-16T07:29:05;100983.88;;;13.56;100.00
13068;BME280;6600;51.362;6.686;2022-10-16T07:31:30;100981.81;;;13.70;100.00
13068;BME280;6600;51.362;6.686;2022-10-16T07:33:58;100988.88;;;13.83;100.00
13068;BME280;6600;51.362;6.686;2022-10-16T07:36:24;100998.84;;;13.94;100.00
13068;BME280;6600;51.362;6.686;2022-10-16T07:38:49;100999.94;;;14.04;100.00
13068;BME280;6600;51.362;6.686;2022-10-16T07:41:17;101003.13;;;14.13;100.00
13068;BME280;6600;51.362;6.686;2022-10-16T07:43:47;100998.81;;;14.24;100.00
13068;BME280;6600;51.362;6.686;2022-10-16T07:46:13;101010.31;;;14.31;100.00
13068;BME280;6600;51.362;6.686;2022-10-16T07:48:39;101013.84;;;14.43;100.00
13068;BME280;6600;51.362;6.686;2022-10-16T07:51:06;101015.50;;;14.55;100.00
13068;BME280;6600;51.362;6.686;2022-10-16T07:53:32;101023.47;;;14.62;100.00
13068;BME280;6600;51.362;6.686;2022-10-16T07:56:03;101029.91;;;14.73;100.00
13068;BME280;6600;51.362;6.686;2022-10-16T07:58:30;101027.44;;;14.83;100.00
13068;BME280;6600;51.362;6.686;2022-10-16T08:00:56;101032.03;;;14.94;100.00
13068;BME280;6600;51.362;6.686;2022-10-16T08:03:22;101027.09;;;15.02;100.00
13068;BME280;6600;51.362;6.686;2022-10-16T08:05:47;101038.44;;;15.16;100.00
13068;BME280;6600;51.362;6.686;2022-10-16T08:08:14;101031.63;;;15.25;100.00
13068;BME280;6600;51.362;6.686;2022-10-16T08:10:39;101043.69;;;15.34;100.00
13068;BME280;6600;51.362;6.686;2022-10-16T08:13:05;101045.53;;;15.45;100.00
13068;BME280;6600;51.362;6.686;2022-10-16T08:15:30;101060.84;;;15.51;100.00
13068;BME280;6600;51.362;6.686;2022-10-16T08:18:00;101057.38;;;15.56;100.00
13068;BME280;6600;51.362;6.686;2022-10-16T08:20:27;101055.00;;;15.71;100.00
13068;BME280;6600;51.362;6.686;2022-10-16T08:22:52;101062.00;;;15.84;100.00
13068;BME280;6600;51.362;6.686;2022-10-16T08:25:19;101062.00;;;15.84;100.00
13068;BME280;6600;51.362;6.686;2022-10-16T08:27:44;101074.38;;;15.96;100.00
13068;BME280;6600;51.362;6.686;2022-10-16T08:30:10;101081.94;;;16.11;100.00
13068;BME280;6600;51.362;6.686;2022-10-16T08:32:35;101083.22;;;16.20;100.00
13068;BME280;6600;51.362;6.686;2022-10-16T08:35:01;101096.25;;;16.23;100.00
13068;BME280;6600;51.362;6.686;2022-10-16T08:37:30;101099.19;;;16.38;100.00
13068;BME280;6600;51.362;6.686;2022-10-16T08:39:56;101103.16;;;16.47;100.00
13068;BME280;6600;51.362;6.686;2022-10-16T08:48:29;101114.09;;;16.69;100.00
13068;BME280;6600;51.362;6.686;2022-10-16T08:50:56;101106.88;;;16.75;100.00
13068;BME280;6600;51.362;6.686;2022-10-16T08:53:52;101122.22;;;16.86;100.00
13068;BME280;6600;51.362;6.686;2022-10-16T08:56:19;101126.16;;;16.95;100.00
13068;BME280;6600;51.362;6.686;2022-10-16T08:58:46;101127.78;;;16.96;100.00
13068;BME280;6600;51.362;6.686;2022-10-16T09:01:15;101129.66;;;17.12;100.00
13068;BME280;6600;51.362;6.686;2022-10-16T09:11:58;101128.50;;;17.46;100.00
13068;BME280;6600;51.362;6.686;2022-10-16T09:14:40;101129.84;;;17.44;100.00
13068;BME280;6600;51.362;6.686;2022-10-16T09:17:15;101132.75;;;17.59;100.00
13068;BME280;6600;51.362;6.686;2022-10-16T09:19:52;101134.53;;;17.70;100.00
13068;BME280;6600;51.362;6.686;2022-10-16T09:22:21;101136.69;;;17.68;100.00
13068;BME280;6600;51.362;6.686;2022-10-16T09:24:51;101136.81;;;17.78;100.00
13068;BME280;6600;51.362;6.686;2022-10-16T09:27:16;101141.41;;;17.78;100.00
13068;BME280;6600;51.362;6.686;2022-10-16T09:29:42;101146.84;;;17.99;100.00
13068;BME280;6600;51.362;6.686;2022-10-16T09:32:12;101155.06;;;18.09;100.00
13068;BME280;6600;51.362;6.686;2022-10-16T09:34:42;101152.59;;;18.08;100.00
13068;BME280;6600;51.362;6.686;2022-10-16T09:37:14;101147.25;;;18.13;100.00
13068;BME280;6600;51.362;6.686;2022-10-16T09:42:16;101143.41;;;18.09;100.00
13068;BME280;6600;51.362;6.686;2022-10-16T09:44:42;101145.81;;;18.05;100.00
13068;BME280;6600;51.362;6.686;2022-10-16T09:47:21;101144.59;;;18.18;100.00
13068;BME280;6600;51.362;6.686;2022-10-16T09:50:05;101146.34;;;18.29;100.00
13068;BME280;6600;51.362;6.686;2022-10-16T09:52:43;101147.81;;;18.15;99.52
13068;BME280;6600;51.362;6.686;2022-10-16T09:55:14;101152.19;;;18.21;99.79
13068;BME280;6600;51.362;6.686;2022-10-16T09:57:53;101146.25;;;18.24;99.55
13068;BME280;6600;51.362;6.686;2022-10-16T10:00:19;101148.53;;;18.32;100.00
13068;BME280;6600;51.362;6.686;2022-10-16T10:02:45;101155.69;;;18.43;100.00
13068;BME280;6600;51.362;6.686;2022-10-16T10:05:28;101161.94;;;18.44;98.32
13068;BME280;6600;51.362;6.686;2022-10-16T10:07:56;101147.72;;;18.58;99.49
13068;BME280;6600;51.362;6.686;2022-10-16T10:10:27;101144.63;;;18.77;100.00
13068;BME280;6600;51.362;6.686;2022-10-16T10:12:53;101145.22;;;18.84;98.96
13068;BME280;6600;51.362;6.686;2022-10-16T10:15:21;101153.28;;;18.74;96.85
13068;BME280;6600;51.362;6.686;2022-10-16T10:22:51;101154.50;;;18.88;96.96
13068;BME280;6600;51.362;6.686;2022-10-16T10:33:28;101164.97;;;19.11;97.80
13068;BME280;6600;51.362;6.686;2022-10-16T10:36:19;101155.88;;;19.27;95.75
13068;BME280;6600;51.362;6.686;2022-10-16T10:39:02;101169.41;;;19.22;94.90
13068;BME280;6600;51.362;6.686;2022-10-16T10:44:18;101170.03;;;19.34;93.79
13068;BME280;6600;51.362;6.686;2022-10-16T10:57:36;101173.78;;;19.28;95.44
13068;BME280;6600;51.362;6.686;2022-10-16T11:03:54;101170.06;;;19.39;93.50
13068;BME280;6600;51.362;6.686;2022-10-16T11:08:32;101177.25;;;19.50;93.20
13068;BME280;6600;51.362;6.686;2022-10-16T11:11:05;101167.78;;;19.58;92.63
13068;BME280;6600;51.362;6.686;2022-10-16T11:13:38;101170.59;;;19.36;93.20
13068;BME280;6600;51.362;6.686;2022-10-16T11:16:21;101163.66;;;19.50;92.93
13068;BME280;6600;51.362;6.686;2022-10-16T11:21:16;101175.91;;;19.16;92.13
13068;BME280;6600;51.362;6.686;2022-10-16T11:23:53;101176.44;;;19.13;93.38
13068;BME280;6600;51.362;6.686;2022-10-16T11:26:27;101188.69;;;19.21;96.62
13068;BME280;6600;51.362;6.686;2022-10-16T11:28:55;101191.81;;;19.39;94.47
13068;BME280;6600;51.362;6.686;2022-10-16T11:31:29;101188.19;;;19.29;93.84
13068;BME280;6600;51.362;6.686;2022-10-16T11:34:24;101191.31;;;19.05;92.66
13068;BME280;6600;51.362;6.686;2022-10-16T11:36:52;101186.53;;;19.23;94.65
13068;BME280;6600;51.362;6.686;2022-10-16T11:39:29;101182.53;;;19.35;93.09
13068;BME280;6600;51.362;6.686;2022-10-16T11:42:02;101170.97;;;19.50;91.51
13068;BME280;6600;51.362;6.686;2022-10-16T11:45:08;101186.03;;;19.73;91.98
13068;BME280;6600;51.362;6.686;2022-10-16T11:47:50;101189.34;;;19.80;91.61
13068;BME280;6600;51.362;6.686;2022-10-16T11:55:31;101191.06;;;19.96;90.85
13068;BME280;6600;51.362;6.686;2022-10-16T11:58:03;101198.94;;;19.97;89.09
13068;BME280;6600;51.362;6.686;2022-10-16T12:00:35;101194.28;;;19.88;89.29
13068;BME280;6600;51.362;6.686;2022-10-16T12:08:44;101202.94;;;19.80;87.76
13068;BME280;6600;51.362;6.686;2022-10-16T12:11:42;101193.66;;;19.71;86.86
13068;BME280;6600;51.362;6.686;2022-10-16T12:14:33;101197.41;;;19.59;87.17
13068;BME280;6600;51.362;6.686;2022-10-16T12:17:03;101200.09;;;19.54;88.38
13068;BME280;6600;51.362;6.686;2022-10-16T12:19:31;101187.53;;;19.43;88.35
13068;BME280;6600;51.362;6.686;2022-10-16T12:21:59;101198.25;;;19.28;88.65
13068;BME280;6600;51.362;6.686;2022-10-16T12:24:42;101195.47;;;19.18;88.98
13068;BME280;6600;51.362;6.686;2022-10-16T12:27:26;101193.03;;;19.16;89.67
13068;BME280;6600;51.362;6.686;2022-10-16T12:30:01;101192.72;;;19.13;89.37
13068;BME280;6600;51.362;6.686;2022-10-16T12:32:31;101195.97;;;19.15;91.16
13068;BME280;6600;51.362;6.686;2022-10-16T12:34:58;101184.38;;;19.25;90.01
13068;BME280;6600;51.362;6.686;2022-10-16T12:37:28;101206.38;;;19.23;88.98
13068;BME280;6600;51.362;6.686;2022-10-16T12:39:56;101190.09;;;19.23;90.38
13068;BME280;6600;51.362;6.686;2022-10-16T12:44:51;101196.88;;;19.26;90.91
13068;BME280;6600;51.362;6.686;2022-10-16T12:47:35;101212.44;;;19.35;90.09
13068;BME280;6600;51.362;6.686;2022-10-16T12:50:02;101211.41;;;19.41;89.96
13068;BME280;6600;51.362;6.686;2022-10-16T12:52:35;101204.66;;;19.44;89.91
13068;BME280;6600;51.362;6.686;2022-10-16T12:55:02;101198.44;;;19.53;88.32
13068;BME280;6600;51.362;6.686;2022-10-16T12:57:42;101212.06;;;19.58;88.89
13068;BME280;6600;51.362;6.686;2022-10-16T13:11:35;101196.38;;;18.97;90.84
13068;BME280;6600;51.362;6.686;2022-10-16T13:17:11;101204.31;;;18.72;92.27
13068;BME280;6600;51.362;6.686;2022-10-16T13:27:56;101217.31;;;18.70;93.93
13068;BME280;6600;51.362;6.686;2022-10-16T13:30:25;101217.91;;;18.72;94.32
13068;BME280;6600;51.362;6.686;2022-10-16T13:33:02;101228.84;;;18.82;94.65
13068;BME280;6600;51.362;6.686;2022-10-16T13:35:32;101219.19;;;18.96;94.68
13068;BME280;6600;51.362;6.686;2022-10-16T13:38:14;101215.38;;;18.97;92.60
13068;BME280;6600;51.362;6.686;2022-10-16T13:43:23;101212.72;;;19.02;90.67
13068;BME280;6600;51.362;6.686;2022-10-16T13:45:54;101216.28;;;19.07;89.97
13068;BME280;6600;51.362;6.686;2022-10-16T13:48:20;101216.91;;;19.14;90.34
13068;BME280;6600;51.362;6.686;2022-10-16T13:50:45;101209.63;;;19.20;88.69
13068;BME280;6600;51.362;6.686;2022-10-16T13:53:14;101206.94;;;19.25;89.44
13068;BME280;6600;51.362;6.686;2022-10-16T13:55:40;101209.69;;;19.30;88.08
13068;BME280;6600;51.362;6.686;2022-10-16T13:58:08;101210.47;;;19.31;88.38
13068;BME280;6600;51.362;6.686;2022-10-16T14:00:36;101212.13;;;19.32;87.81
13068;BME280;6600;51.362;6.686;2022-10-16T14:03:04;101221.66;;;19.34;87.21
13068;BME280;6600;51.362;6.686;2022-10-16T14:05:31;101228.22;;;19.38;87.87
13068;BME280;6600;51.362;6.686;2022-10-16T14:07:57;101230.91;;;19.33;87.48
13068;BME280;6600;51.362;6.686;2022-10-16T14:10:32;101227.91;;;19.35;88.27
13068;BME280;6600;51.362;6.686;2022-10-16T14:13:01;101239.00;;;19.28;89.33
13068;BME280;6600;51.362;6.686;2022-10-16T14:15:27;101240.56;;;19.19;89.89
13068;BME280;6600;51.362;6.686;2022-10-16T14:17:54;101225.81;;;19.10;88.29
13068;BME280;6600;51.362;6.686;2022-10-16T14:20:24;101220.59;;;19.03;87.93
13068;BME280;6600;51.362;6.686;2022-10-16T14:22:59;101198.03;;;18.98;90.31
13068;BME280;6600;51.362;6.686;2022-10-16T14:25:27;101206.16;;;18.98;90.84
13068;BME280;6600;51.362;6.686;2022-10-16T14:28:04;101220.81;;;18.97;91.57
13068;BME280;6600;51.362;6.686;2022-10-16T14:30:33;101222.47;;;18.98;91.48
13068;BME280;6600;51.362;6.686;2022-10-16T14:33:18;101224.63;;;18.96;91.00
13068;BME280;6600;51.362;6.686;2022-10-16T14:35:45;101226.78;;;18.94;91.30
13068;BME280;6600;51.362;6.686;2022-10-16T14:38:19;101233.03;;;18.94;91.73
13068;BME280;6600;51.362;6.686;2022-10-16T14:40:48;101225.41;;;18.91;92.96
13068;BME280;6600;51.362;6.686;2022-10-16T14:43:22;101226.16;;;18.87;91.61
13068;BME280;6600;51.362;6.686;2022-10-16T14:45:53;101213.63;;;18.81;90.95
13068;BME280;6600;51.362;6.686;2022-10-16T14:48:19;101226.91;;;18.77;92.17
13068;BME280;6600;51.362;6.686;2022-10-16T14:50:46;101241.28;;;18.78;93.21